Allure of the Seas — C6XS8 — position and weather

sailwx.info

Track history (hours):
 
Tides and Currents Weather Stations Pressure Air Temp Water Temp Dewpoint Dewpoint Depression Visibility Wind Speed Wind Dir Waves Ship Positions

Allure of the Seas

Last reported at 2019-Mar-22 05:00 UTC. Time now 2019-Mar-22 12:04 UTC.
Position N 17°24' W 087°06'.

Length 362 m; draft 9.3 m.

Type: Passenger vessel. MMSI: 311020700.

Wind from 070 at 17 knots

Barometer 1018.0 mb
Air temperature 26.0 ° C
Visibility: greater than 10.8 NM
Dewpoint 18.0 ° C
Water temperature 27.0 ° C

Date/timePositionNaut miles runAvg speedWind from/ knotsBaromVisibWave heightAir tempDewpointWater temp
2019-Mar-22 05:00N 17°24' W 087°06'61 2.5 070 / 171018.010.8 26.018.027.0
2019-Mar-21 05:00N 18°24' W 086°54'12019.9 070 / 261017.010.8 26.020.627.0
2019-Mar-20 22:57N 20°24' W 087°05'714.8
2019-Mar-20 22:29N 20°29' W 086°60'1 2.6
2019-Mar-20 21:58N 20°29' W 086°59'0 0.0
2019-Mar-20 21:29N 20°29' W 086°59'0 0.0
2019-Mar-20 20:55N 20°29' W 086°59'0 0.0
2019-Mar-20 20:28N 20°29' W 086°59'0 0.0
2019-Mar-20 19:58N 20°29' W 086°59'0 0.0
2019-Mar-20 19:28N 20°29' W 086°59'0 0.0
2019-Mar-20 18:58N 20°29' W 086°59'0 0.0
2019-Mar-20 18:28N 20°29' W 086°59'0 0.0
2019-Mar-20 17:59N 20°29' W 086°59'0 0.0
2019-Mar-20 17:28N 20°29' W 086°59'0 0.0
2019-Mar-20 16:58N 20°29' W 086°59'0 0.0
2019-Mar-20 16:28N 20°29' W 086°59'0 0.0
2019-Mar-20 15:58N 20°29' W 086°59'0 0.0
2019-Mar-20 15:28N 20°29' W 086°59'0 0.0
2019-Mar-20 14:58N 20°29' W 086°59'0 0.0
2019-Mar-20 14:28N 20°29' W 086°59'0 0.0
2019-Mar-20 13:58N 20°29' W 086°59'0 0.0
2019-Mar-20 13:28N 20°29' W 086°59'0 0.0
2019-Mar-20 12:58N 20°29' W 086°59'0 0.0
2019-Mar-20 12:29N 20°29' W 086°59'0 0.0
2019-Mar-20 11:59N 20°29' W 086°59'0 0.6
2019-Mar-20 11:31N 20°29' W 086°59'5 9.5
2019-Mar-20 11:00N 20°34' W 086°58'815.2
2019-Mar-20 10:30N 20°40' W 086°53'18917.9
2019-Mar-20 00:00N 22°48' W 084°24'23019.2 130 / 181014.010.8 23.019.426.0
2019-Mar-19 12:00N 24°12' W 080°30'17514.6 120 / 231015.010.8 25.019.926.0
2019-Mar-19 00:00N 25°48' W 077°48'100 3.9 050 / 181016.010.8 25.019.726.0
2019-Mar-17 22:44N 25°57' W 079°38'416.7
2019-Mar-17 22:30N 25°55' W 079°42'917.3
2019-Mar-17 22:00N 25°52' W 079°51'917.2
2019-Mar-17 21:30N 25°48' W 079°59'713.1
2019-Mar-17 21:00N 25°46' W 080°06'3 6.5
2019-Mar-17 20:30N 25°46' W 080°09'0 0.0
2019-Mar-17 19:56N 25°46' W 080°09'0 0.0
2019-Mar-17 19:29N 25°46' W 080°09'0 0.0
2019-Mar-17 18:59N 25°46' W 080°09'0 0.0
2019-Mar-17 18:29N 25°46' W 080°09'0 0.0
2019-Mar-17 17:59N 25°46' W 080°09'0 0.0
2019-Mar-17 17:29N 25°46' W 080°09'0 0.0
2019-Mar-17 16:56N 25°46' W 080°09'0 0.0
2019-Mar-17 16:29N 25°46' W 080°09'0 0.0
2019-Mar-17 15:56N 25°46' W 080°09'0 0.0
2019-Mar-17 15:29N 25°46' W 080°09'0 0.0
2019-Mar-17 14:59N 25°46' W 080°09'0 0.0
2019-Mar-17 14:29N 25°46' W 080°09'0 0.0
2019-Mar-17 13:59N 25°46' W 080°09'0 0.0
2019-Mar-17 13:29N 25°46' W 080°09'0 0.0
2019-Mar-17 12:59N 25°46' W 080°09'0 0.0
2019-Mar-17 12:29N 25°46' W 080°09'0 0.0
2019-Mar-17 11:59N 25°46' W 080°09'0 0.0
2019-Mar-17 11:29N 25°46' W 080°09'0 0.0
2019-Mar-17 10:59N 25°46' W 080°09'0 0.0
2019-Mar-17 10:29N 25°46' W 080°09'0 0.0
2019-Mar-17 09:53N 25°46' W 080°09'0 0.0
2019-Mar-17 09:29N 25°46' W 080°09'0 0.0
2019-Mar-17 08:59N 25°46' W 080°09'0 0.0
2019-Mar-17 08:29N 25°46' W 080°09'0 0.0
2019-Mar-17 07:59N 25°46' W 080°09'0 0.2
2019-Mar-17 07:30N 25°46' W 080°10'1 2.9
2019-Mar-17 07:00N 25°47' W 080°11'4 7.5
2019-Mar-17 06:30N 25°45' W 080°07'510.9
2019-Mar-17 06:00N 25°47' W 080°01'713.3
2019-Mar-17 05:30N 25°43' W 079°55'815.7
2019-Mar-17 05:00N 25°39' W 079°47'916.9
2019-Mar-17 04:30N 25°34' W 079°40'7717.0
2019-Mar-17 00:00N 24°18' W 079°30'   070 / 101019.010.8 25.019.226.0
2019-Mar-14 04:33N 18°10' W 064°50'6013.1
2019-Mar-14 00:00N 18°00' W 063°48'3814.9 100 / 81017.010.8 26.019.526.0
2019-Mar-13 21:26N 18°00' W 063°08'510.9
2019-Mar-13 21:00N 18°01' W 063°03'0 0.2
2019-Mar-13 20:08N 18°01' W 063°03'0 0.0
2019-Mar-13 19:50N 18°01' W 063°03'0 0.0
2019-Mar-13 18:50N 18°01' W 063°03'0 0.0
2019-Mar-13 17:38N 18°01' W 063°03'0 0.0
2019-Mar-13 17:08N 18°01' W 063°03'0 0.0
2019-Mar-13 16:53N 18°01' W 063°03'0 0.0
2019-Mar-13 16:26N 18°01' W 063°03'0 0.0
2019-Mar-13 15:38N 18°01' W 063°03'0 0.0
2019-Mar-13 15:11N 18°01' W 063°03'0 0.0
2019-Mar-13 14:56N 18°01' W 063°03'0 0.0
2019-Mar-13 13:59N 18°01' W 063°03'0 0.0
2019-Mar-13 13:14N 18°01' W 063°03'0 0.0
2019-Mar-13 12:26N 18°01' W 063°03'0 0.0
2019-Mar-13 11:59N 18°01' W 063°03'1 1.3
2019-Mar-13 11:18N 18°00' W 063°04'310.1
2019-Mar-13 10:58N 18°01' W 063°07'712.0
2019-Mar-13 10:21N 18°04' W 063°14'712.3
2019-Mar-13 09:48N 18°07' W 063°20'513.0
2019-Mar-13 09:26N 18°10' W 063°24'13814.6
2019-Mar-13 00:00N 19°36' W 065°18'10217.0 070 / 101017.010.8 26.020.226.0
2019-Mar-12 18:00N 20°24' W 066°54'12217.5 090 / 131017.210.8 27.816.826.3
2019-Mar-12 11:00N 21°24' W 068°48'   050 / 141017.010.8 24.014.826.0
Track history (hours):
 
Tides and Currents Weather Stations Pressure Air Temp Water Temp Dewpoint Dewpoint Depression Visibility Wind Speed Wind Dir Waves Ship Positions

Allure of the Seas

Last reported at 2019-Mar-22 05:00 UTC. Time now 2019-Mar-22 12:04 UTC.
Position N 17°24' W 087°06'.

Length 362 m; draft 9.3 m.

Type: Passenger vessel. MMSI: 311020700.

Wind from 070 at 17 knots

Barometer 1018.0 mb
Air temperature 26.0 ° C
Visibility: greater than 10.8 NM
Dewpoint 18.0 ° C
Water temperature 27.0 ° C

Date/timePositionNaut miles runAvg speedWind from/ knotsBaromVisibWave heightAir tempDewpointWater temp
2019-Mar-22 05:00N 17°24' W 087°06'61 2.5 070 / 171018.010.8 26.018.027.0
2019-Mar-21 05:00N 18°24' W 086°54'12019.9 070 / 261017.010.8 26.020.627.0
2019-Mar-20 22:57N 20°24' W 087°05'714.8
2019-Mar-20 22:29N 20°29' W 086°60'1 2.6
2019-Mar-20 21:58N 20°29' W 086°59'0 0.0
2019-Mar-20 21:29N 20°29' W 086°59'0 0.0
2019-Mar-20 20:55N 20°29' W 086°59'0 0.0
2019-Mar-20 20:28N 20°29' W 086°59'0 0.0
2019-Mar-20 19:58N 20°29' W 086°59'0 0.0
2019-Mar-20 19:28N 20°29' W 086°59'0 0.0
2019-Mar-20 18:58N 20°29' W 086°59'0 0.0
2019-Mar-20 18:28N 20°29' W 086°59'0 0.0
2019-Mar-20 17:59N 20°29' W 086°59'0 0.0
2019-Mar-20 17:28N 20°29' W 086°59'0 0.0
2019-Mar-20 16:58N 20°29' W 086°59'0 0.0
2019-Mar-20 16:28N 20°29' W 086°59'0 0.0
2019-Mar-20 15:58N 20°29' W 086°59'0 0.0
2019-Mar-20 15:28N 20°29' W 086°59'0 0.0
2019-Mar-20 14:58N 20°29' W 086°59'0 0.0
2019-Mar-20 14:28N 20°29' W 086°59'0 0.0
2019-Mar-20 13:58N 20°29' W 086°59'0 0.0
2019-Mar-20 13:28N 20°29' W 086°59'0 0.0
2019-Mar-20 12:58N 20°29' W 086°59'0 0.0
2019-Mar-20 12:29N 20°29' W 086°59'0 0.0
2019-Mar-20 11:59N 20°29' W 086°59'0 0.6
2019-Mar-20 11:31N 20°29' W 086°59'5 9.5
2019-Mar-20 11:00N 20°34' W 086°58'815.2
2019-Mar-20 10:30N 20°40' W 086°53'18917.9
2019-Mar-20 00:00N 22°48' W 084°24'23019.2 130 / 181014.010.8 23.019.426.0
2019-Mar-19 12:00N 24°12' W 080°30'17514.6 120 / 231015.010.8 25.019.926.0
2019-Mar-19 00:00N 25°48' W 077°48'100 3.9 050 / 181016.010.8 25.019.726.0
2019-Mar-17 22:44N 25°57' W 079°38'416.7
2019-Mar-17 22:30N 25°55' W 079°42'917.3
2019-Mar-17 22:00N 25°52' W 079°51'917.2
2019-Mar-17 21:30N 25°48' W 079°59'713.1
2019-Mar-17 21:00N 25°46' W 080°06'3 6.5
2019-Mar-17 20:30N 25°46' W 080°09'0 0.0
2019-Mar-17 19:56N 25°46' W 080°09'0 0.0
2019-Mar-17 19:29N 25°46' W 080°09'0 0.0
2019-Mar-17 18:59N 25°46' W 080°09'0 0.0
2019-Mar-17 18:29N 25°46' W 080°09'0 0.0
2019-Mar-17 17:59N 25°46' W 080°09'0 0.0
2019-Mar-17 17:29N 25°46' W 080°09'0 0.0
2019-Mar-17 16:56N 25°46' W 080°09'0 0.0
2019-Mar-17 16:29N 25°46' W 080°09'0 0.0
2019-Mar-17 15:56N 25°46' W 080°09'0 0.0
2019-Mar-17 15:29N 25°46' W 080°09'0 0.0
2019-Mar-17 14:59N 25°46' W 080°09'0 0.0
2019-Mar-17 14:29N 25°46' W 080°09'0 0.0
2019-Mar-17 13:59N 25°46' W 080°09'0 0.0
2019-Mar-17 13:29N 25°46' W 080°09'0 0.0
2019-Mar-17 12:59N 25°46' W 080°09'0 0.0
2019-Mar-17 12:29N 25°46' W 080°09'0 0.0
2019-Mar-17 11:59N 25°46' W 080°09'0 0.0
2019-Mar-17 11:29N 25°46' W 080°09'0 0.0
2019-Mar-17 10:59N 25°46' W 080°09'0 0.0
2019-Mar-17 10:29N 25°46' W 080°09'0 0.0
2019-Mar-17 09:53N 25°46' W 080°09'0 0.0
2019-Mar-17 09:29N 25°46' W 080°09'0 0.0
2019-Mar-17 08:59N 25°46' W 080°09'0 0.0
2019-Mar-17 08:29N 25°46' W 080°09'0 0.0
2019-Mar-17 07:59N 25°46' W 080°09'0 0.2
2019-Mar-17 07:30N 25°46' W 080°10'1 2.9
2019-Mar-17 07:00N 25°47' W 080°11'4 7.5
2019-Mar-17 06:30N 25°45' W 080°07'510.9
2019-Mar-17 06:00N 25°47' W 080°01'713.3
2019-Mar-17 05:30N 25°43' W 079°55'815.7
2019-Mar-17 05:00N 25°39' W 079°47'916.9
2019-Mar-17 04:30N 25°34' W 079°40'7717.0
2019-Mar-17 00:00N 24°18' W 079°30'   070 / 101019.010.8 25.019.226.0
2019-Mar-14 04:33N 18°10' W 064°50'6013.1
2019-Mar-14 00:00N 18°00' W 063°48'3814.9 100 / 81017.010.8 26.019.526.0
2019-Mar-13 21:26N 18°00' W 063°08'510.9
2019-Mar-13 21:00N 18°01' W 063°03'0 0.2
2019-Mar-13 20:08N 18°01' W 063°03'0 0.0
2019-Mar-13 19:50N 18°01' W 063°03'0 0.0
2019-Mar-13 18:50N 18°01' W 063°03'0 0.0
2019-Mar-13 17:38N 18°01' W 063°03'0 0.0
2019-Mar-13 17:08N 18°01' W 063°03'0 0.0
2019-Mar-13 16:53N 18°01' W 063°03'0 0.0
2019-Mar-13 16:26N 18°01' W 063°03'0 0.0
2019-Mar-13 15:38N 18°01' W 063°03'0 0.0
2019-Mar-13 15:11N 18°01' W 063°03'0 0.0
2019-Mar-13 14:56N 18°01' W 063°03'0 0.0
2019-Mar-13 13:59N 18°01' W 063°03'0 0.0
2019-Mar-13 13:14N 18°01' W 063°03'0 0.0
2019-Mar-13 12:26N 18°01' W 063°03'0 0.0
2019-Mar-13 11:59N 18°01' W 063°03'1 1.3
2019-Mar-13 11:18N 18°00' W 063°04'310.1
2019-Mar-13 10:58N 18°01' W 063°07'712.0
2019-Mar-13 10:21N 18°04' W 063°14'712.3
2019-Mar-13 09:48N 18°07' W 063°20'513.0
2019-Mar-13 09:26N 18°10' W 063°24'13814.6
2019-Mar-13 00:00N 19°36' W 065°18'10217.0 070 / 101017.010.8 26.020.226.0
2019-Mar-12 18:00N 20°24' W 066°54'12217.5 090 / 131017.210.8 27.816.826.3
2019-Mar-12 11:00N 21°24' W 068°48'   050 / 141017.010.8 24.014.826.0

Dump ship's entire track history